createdAt,value
2023-04-18T00:02:26.162Z,59.76
2023-04-18T00:04:55.363Z,61.98
2023-04-18T00:07:25.636Z,60.47
2023-04-18T00:09:54.370Z,62.30
2023-04-18T00:12:23.306Z,63.69
2023-04-18T00:14:52.227Z,61.10
2023-04-18T00:17:22.304Z,61.89
2023-04-18T00:19:52.445Z,61.41
2023-04-18T00:22:22.548Z,61.92
2023-04-18T00:24:53.346Z,62.81
2023-04-18T00:27:22.883Z,62.16
2023-04-18T00:29:52.970Z,60.44
2023-04-18T00:32:21.619Z,60.95
2023-04-18T00:34:50.238Z,61.14
2023-04-18T00:37:20.380Z,61.94
2023-04-18T00:39:53.885Z,60.24
2023-04-18T00:42:27.286Z,61.21
2023-04-18T00:44:56.030Z,59.58
2023-04-18T00:47:25.001Z,61.94
2023-04-18T00:49:53.929Z,61.50
2023-04-18T00:52:22.781Z,60.60
2023-04-18T00:54:53.114Z,60.46
2023-04-18T00:57:22.181Z,60.26
2023-04-18T00:59:53.172Z,59.80
2023-04-18T01:02:22.325Z,60.76
2023-04-18T01:04:52.234Z,61.43
2023-04-18T01:07:20.926Z,60.13
2023-04-18T01:09:49.621Z,60.37
2023-04-18T01:12:19.958Z,60.18
2023-04-18T01:14:48.673Z,62.78
2023-04-18T01:17:17.583Z,61.04
2023-04-18T01:19:46.810Z,61.92
2023-04-18T01:22:15.915Z,61.55
2023-04-18T01:24:45.899Z,62.96
2023-04-18T01:27:15.182Z,62.99
2023-04-18T01:29:43.879Z,61.77
2023-04-18T01:32:12.894Z,60.72
2023-04-18T01:34:41.954Z,61.50
2023-04-18T01:37:10.640Z,61.31
2023-04-18T01:39:39.340Z,61.20
2023-04-18T01:42:09.613Z,62.27
2023-04-18T01:44:39.226Z,62.28
2023-04-18T01:47:08.121Z,63.69
2023-04-18T01:49:36.807Z,63.89
2023-04-18T01:52:05.440Z,66.33
2023-04-18T01:54:34.332Z,66.03
2023-04-18T01:57:03.400Z,67.78
2023-04-18T01:59:33.677Z,66.47
2023-04-18T02:02:03.870Z,66.48
2023-04-18T02:04:32.982Z,66.65
2023-04-18T02:07:01.644Z,64.77
2023-04-18T02:09:30.409Z,64.21
2023-04-18T02:12:03.395Z,64.23
2023-04-18T02:14:36.898Z,65.14
2023-04-18T02:17:05.880Z,64.94
2023-04-18T02:19:34.607Z,61.61
2023-04-18T02:22:03.276Z,61.14
2023-04-18T02:24:33.184Z,62.00
2023-04-18T02:27:02.019Z,62.81
2023-04-18T02:29:31.201Z,62.45
2023-04-18T02:32:01.535Z,60.76
2023-04-18T02:34:30.302Z,61.38
2023-04-18T02:36:59.044Z,61.96
2023-04-18T02:39:28.029Z,61.46
2023-04-18T02:41:56.711Z,61.70
2023-04-18T02:44:26.424Z,60.93
2023-04-18T02:46:56.512Z,60.44
2023-04-18T02:49:26.969Z,60.65
2023-04-18T02:51:56.781Z,61.95
2023-04-18T02:54:25.804Z,61.02
2023-04-18T02:56:55.499Z,61.50
2023-04-18T02:59:26.917Z,62.06
2023-04-18T03:01:56.446Z,63.07
2023-04-18T03:04:27.303Z,62.96
2023-04-18T03:06:57.960Z,62.36
2023-04-18T03:09:27.538Z,62.89
2023-04-18T03:11:56.870Z,63.22
2023-04-18T03:14:26.022Z,66.32
2023-04-18T03:16:55.772Z,68.25
2023-04-18T03:19:24.652Z,67.57
2023-04-18T03:21:55.496Z,67.18
2023-04-18T03:24:24.620Z,66.44
2023-04-18T03:26:54.029Z,65.63
2023-04-18T03:29:23.041Z,65.10
2023-04-18T03:31:53.366Z,66.39
2023-04-18T03:34:22.480Z,67.26
2023-04-18T03:36:51.814Z,66.25
2023-04-18T03:39:22.207Z,66.64
2023-04-18T03:41:52.221Z,64.83
2023-04-18T03:44:21.581Z,65.50
2023-04-18T03:46:50.513Z,65.22
2023-04-18T03:49:22.588Z,64.47
2023-04-18T03:51:52.098Z,64.70
2023-04-18T03:54:22.212Z,64.78
2023-04-18T03:56:51.336Z,65.12
2023-04-18T03:59:20.428Z,64.91
2023-04-18T04:01:49.532Z,65.34
2023-04-18T04:04:19.559Z,65.16
2023-04-18T04:06:48.619Z,62.96
2023-04-18T04:09:18.116Z,63.99
2023-04-18T04:11:48.606Z,64.19
2023-04-18T04:14:17.481Z,66.25
2023-04-18T04:16:46.539Z,66.08
2023-04-18T04:19:16.468Z,64.56
2023-04-18T04:21:45.688Z,65.04
2023-04-18T04:24:15.325Z,64.45
2023-04-18T04:26:46.706Z,64.32
2023-04-18T04:29:17.196Z,64.77
2023-04-18T04:31:46.635Z,64.42
2023-04-18T04:34:20.936Z,62.10
2023-04-18T04:36:51.260Z,65.80
2023-04-18T04:39:20.078Z,65.20
2023-04-18T04:41:50.119Z,64.73
2023-04-18T04:44:22.069Z,63.71
2023-04-18T04:46:50.686Z,64.16
2023-04-18T04:49:19.915Z,63.60
2023-04-18T04:51:49.607Z,63.48
2023-04-18T04:54:18.426Z,64.10
2023-04-18T04:56:47.425Z,63.28
2023-04-18T04:59:16.369Z,63.41
2023-04-18T05:01:59.803Z,64.56
2023-04-18T05:04:47.177Z,63.04
2023-04-18T05:07:15.930Z,62.99
2023-04-18T05:09:44.968Z,62.88
2023-04-18T05:12:13.707Z,65.44
2023-04-18T05:14:42.393Z,66.17
2023-04-18T05:17:12.796Z,65.37
2023-04-18T05:19:43.364Z,65.39
2023-04-18T05:22:12.363Z,66.66
2023-04-18T05:24:41.264Z,66.74
2023-04-18T05:27:10.056Z,65.92
2023-04-18T05:29:41.234Z,64.82
2023-04-18T05:32:13.004Z,63.91
2023-04-18T05:34:43.432Z,63.42
2023-04-18T05:37:12.148Z,63.79
2023-04-18T05:39:40.926Z,63.20
2023-04-18T05:42:09.963Z,63.03
2023-04-18T05:44:38.742Z,63.50
2023-04-18T05:47:07.776Z,64.12
2023-04-18T05:49:36.743Z,64.84
2023-04-18T05:52:06.853Z,64.41
2023-04-18T05:54:35.854Z,65.38
2023-04-18T05:57:05.030Z,65.19
2023-04-18T05:59:33.694Z,65.77
2023-04-18T06:02:02.442Z,62.76
2023-04-18T06:04:31.608Z,63.81
2023-04-18T06:07:00.593Z,64.50
2023-04-18T06:09:30.819Z,65.81
2023-04-18T06:11:59.908Z,64.49
2023-04-18T06:14:28.736Z,65.14
2023-04-18T06:16:57.553Z,65.23
2023-04-18T06:19:26.733Z,64.67
2023-04-18T06:21:55.414Z,66.90
2023-04-18T06:24:24.092Z,65.57
2023-04-18T06:26:55.237Z,67.06
2023-04-18T06:29:24.635Z,63.09
2023-04-18T06:31:53.623Z,62.62
2023-04-18T06:34:22.257Z,61.31
2023-04-18T06:36:51.075Z,59.10
2023-04-18T06:39:20.172Z,58.94
2023-04-18T06:41:49.290Z,60.80
2023-04-18T06:44:23.010Z,59.69
2023-04-18T06:46:52.030Z,60.09
2023-04-18T06:49:25.204Z,60.55
2023-04-18T06:51:55.471Z,60.54
2023-04-18T06:54:24.140Z,59.40
2023-04-18T06:56:53.802Z,60.30
2023-04-18T06:59:24.209Z,59.63
2023-04-18T07:01:55.312Z,58.87
2023-04-18T07:04:24.352Z,58.67
2023-04-18T07:06:53.294Z,58.26
2023-04-18T07:09:22.796Z,57.24
2023-04-18T07:11:52.723Z,57.57
2023-04-18T07:14:24.690Z,57.85
2023-04-18T07:16:53.750Z,55.79
2023-04-18T07:19:22.612Z,54.70
2023-04-18T07:21:51.224Z,56.02
2023-04-18T07:24:20.416Z,55.80
2023-04-18T07:26:49.082Z,55.63
2023-04-18T07:29:19.367Z,54.19
2023-04-18T07:31:49.903Z,55.00
2023-04-18T07:34:18.703Z,55.62
2023-04-18T07:36:47.313Z,55.24
2023-04-18T07:39:16.305Z,55.23
2023-04-18T07:41:44.967Z,57.11
2023-04-18T07:44:13.963Z,55.79
2023-04-18T07:46:43.206Z,54.46
2023-04-18T07:49:13.591Z,54.94
2023-04-18T07:51:45.883Z,54.28
2023-04-18T07:54:14.529Z,54.75
2023-04-18T07:56:43.204Z,53.69
2023-04-18T07:59:12.951Z,54.29
2023-04-18T08:01:41.839Z,55.63
2023-04-18T08:04:12.013Z,54.23
2023-04-18T08:06:42.213Z,54.80
2023-04-18T08:09:12.062Z,53.97
2023-04-18T08:11:43.232Z,53.40
2023-04-18T08:14:12.169Z,53.03
2023-04-18T08:16:40.940Z,53.87
2023-04-18T08:19:09.686Z,54.86
2023-04-18T08:21:39.353Z,53.59
2023-04-18T08:24:09.760Z,53.35
2023-04-18T08:26:38.726Z,51.78
2023-04-18T08:29:08.069Z,51.51
2023-04-18T08:31:36.921Z,50.38
2023-04-18T08:34:08.349Z,51.36
2023-04-18T08:36:37.014Z,51.48
2023-04-18T08:39:06.348Z,52.69
2023-04-18T08:41:38.370Z,50.14
2023-04-18T08:44:08.485Z,49.02
2023-04-18T08:46:37.777Z,50.23
2023-04-18T08:49:07.251Z,49.96
2023-04-18T08:51:36.642Z,51.51
2023-04-18T08:54:06.954Z,47.38
2023-04-18T08:56:38.462Z,49.10
2023-04-18T08:59:06.976Z,48.63
2023-04-18T09:01:56.366Z,49.67
2023-04-18T09:04:36.719Z,49.22
2023-04-18T09:07:06.685Z,47.46
2023-04-18T09:09:46.179Z,47.89
2023-04-18T09:12:18.423Z,46.30
2023-04-18T09:14:48.539Z,45.58
2023-04-18T09:17:32.615Z,45.74
2023-04-18T09:20:02.232Z,46.85
2023-04-18T09:22:45.975Z,48.05
2023-04-18T09:25:26.153Z,44.17
2023-04-18T09:27:57.384Z,42.99
2023-04-18T09:30:39.582Z,44.98
2023-04-18T09:33:10.439Z,46.17
2023-04-18T09:35:39.221Z,46.08
2023-04-18T09:38:09.455Z,44.91
2023-04-18T09:40:38.217Z,45.89
2023-04-18T09:43:20.516Z,47.29
2023-04-18T09:45:49.743Z,43.83
2023-04-18T09:48:18.498Z,45.70
2023-04-18T09:50:47.518Z,45.24
2023-04-18T09:53:21.039Z,45.58
2023-04-18T09:55:53.042Z,45.61
2023-04-18T09:58:27.142Z,46.14
2023-04-18T10:00:56.160Z,44.51
2023-04-18T10:03:29.887Z,42.44
2023-04-18T10:05:58.613Z,42.07
2023-04-18T10:08:27.882Z,42.92
2023-04-18T10:10:58.691Z,45.33
2023-04-18T10:13:28.896Z,42.79
2023-04-18T10:15:57.636Z,43.20
2023-04-18T10:18:26.390Z,43.64
2023-04-18T10:21:03.119Z,43.15
2023-04-18T10:23:39.901Z,41.86
2023-04-18T10:26:09.240Z,41.80
2023-04-18T10:28:54.342Z,42.01
2023-04-18T10:31:24.613Z,41.80
2023-04-18T10:34:03.728Z,41.36
2023-04-18T10:36:34.182Z,41.54
2023-04-18T10:39:04.399Z,42.38
2023-04-18T10:41:33.867Z,42.89
2023-04-18T10:44:22.293Z,41.51
2023-04-18T10:47:24.898Z,40.27
2023-04-18T10:49:58.938Z,40.20
2023-04-18T10:52:28.461Z,41.34
2023-04-18T10:55:09.777Z,40.35
2023-04-18T10:57:42.412Z,39.93
2023-04-18T11:00:15.243Z,41.40
2023-04-18T11:02:52.599Z,41.68
2023-04-18T11:05:24.624Z,41.65
2023-04-18T11:07:53.739Z,41.82
2023-04-18T11:10:23.972Z,40.99
2023-04-18T11:12:53.313Z,41.19
2023-04-18T11:15:25.505Z,40.00
2023-04-18T11:17:59.392Z,40.28
2023-04-18T11:20:29.246Z,40.10
2023-04-18T11:22:59.332Z,39.96
2023-04-18T11:25:29.786Z,41.09
2023-04-18T11:28:02.687Z,41.46
2023-04-18T11:30:41.884Z,39.86
2023-04-18T11:33:11.340Z,39.24
2023-04-18T11:35:41.280Z,38.20
2023-04-18T11:38:12.569Z,38.67
2023-04-18T11:40:48.619Z,40.78
2023-04-18T11:43:21.579Z,40.78
2023-04-18T11:45:59.332Z,41.07
2023-04-18T11:48:36.198Z,40.81
2023-04-18T11:51:06.512Z,41.54
2023-04-18T11:53:35.569Z,40.99
2023-04-18T11:56:04.950Z,40.65
2023-04-18T11:58:34.051Z,40.36
2023-04-18T12:01:20.540Z,40.35
2023-04-18T12:04:03.000Z,39.55
2023-04-18T12:06:47.442Z,39.62
2023-04-18T12:09:16.533Z,39.12
2023-04-18T12:11:45.478Z,38.02
2023-04-18T12:14:21.694Z,37.80
2023-04-18T12:16:52.182Z,38.32
2023-04-18T12:19:21.567Z,37.76
2023-04-18T12:21:57.849Z,38.52
2023-04-18T12:24:26.591Z,39.16
2023-04-18T12:26:55.789Z,39.67
2023-04-18T12:29:24.804Z,39.65
2023-04-18T12:31:54.872Z,39.26
2023-04-18T12:34:23.951Z,38.89
2023-04-18T12:36:53.777Z,37.49
2023-04-18T12:39:22.418Z,38.27
2023-04-18T12:41:51.397Z,38.39
2023-04-18T12:44:20.108Z,37.76
2023-04-18T12:46:48.816Z,37.87
2023-04-18T12:49:19.217Z,38.64
2023-04-18T12:51:47.932Z,38.22
2023-04-18T12:54:16.739Z,37.04
2023-04-18T12:56:46.518Z,36.04
2023-04-18T12:59:15.421Z,36.87
2023-04-18T13:01:44.308Z,35.13
2023-04-18T13:04:13.880Z,34.58
2023-04-18T13:06:44.321Z,34.55
2023-04-18T13:09:13.613Z,35.06
2023-04-18T13:11:42.601Z,34.95
2023-04-18T13:14:11.374Z,35.00
2023-04-18T13:16:43.113Z,34.53
2023-04-18T13:19:12.757Z,35.03
2023-04-18T13:21:42.023Z,35.07
2023-04-18T13:24:12.035Z,35.04
2023-04-18T13:26:40.731Z,34.13
2023-04-18T13:29:09.686Z,35.77
2023-04-18T13:31:38.406Z,35.46
2023-04-18T13:34:07.116Z,35.95
2023-04-18T13:36:36.112Z,35.31
2023-04-18T13:39:05.836Z,33.56
2023-04-18T13:41:35.961Z,34.00
2023-04-18T13:44:05.286Z,33.42
2023-04-18T13:46:34.037Z,33.48
2023-04-18T13:49:02.752Z,33.61
2023-04-18T13:51:31.864Z,33.16
2023-04-18T13:54:01.326Z,32.51
2023-04-18T13:56:30.024Z,29.25
2023-04-18T13:59:00.792Z,29.96
2023-04-18T14:01:29.602Z,30.03
2023-04-18T14:03:58.770Z,29.44
2023-04-18T14:06:27.695Z,28.21
2023-04-18T14:08:56.420Z,27.73
2023-04-18T14:11:27.598Z,28.41
2023-04-18T14:13:56.296Z,28.07
2023-04-18T14:16:26.676Z,28.06
2023-04-18T14:18:55.404Z,27.67
2023-04-18T14:21:24.137Z,28.76
2023-04-18T14:23:54.331Z,29.00
2023-04-18T14:26:23.221Z,29.42
2023-04-18T14:28:52.149Z,29.21
2023-04-18T14:31:21.735Z,27.94
2023-04-18T14:33:51.733Z,27.69
2023-04-18T14:36:20.614Z,25.86
2023-04-18T14:38:50.177Z,24.45
2023-04-18T14:41:18.938Z,24.21
2023-04-18T14:43:47.779Z,24.48
2023-04-18T14:46:17.323Z,24.28
2023-04-18T14:48:47.254Z,23.51
2023-04-18T14:51:17.930Z,22.73
2023-04-18T14:53:46.679Z,22.33
2023-04-18T14:56:16.132Z,22.42
2023-04-18T14:58:45.000Z,22.30
2023-04-18T15:01:13.712Z,22.45
2023-04-18T15:03:42.414Z,23.16
2023-04-18T15:06:11.479Z,22.46
2023-04-18T15:08:41.637Z,23.16
2023-04-18T15:11:10.414Z,22.86
2023-04-18T15:13:40.035Z,22.60
2023-04-18T15:16:09.240Z,21.49
2023-04-18T15:18:38.078Z,23.24
2023-04-18T15:21:07.252Z,23.24
2023-04-18T15:23:36.097Z,23.45
2023-04-18T15:26:06.448Z,25.25
2023-04-18T15:28:35.389Z,25.66
2023-04-18T15:31:04.079Z,25.88
2023-04-18T15:33:32.820Z,25.44
2023-04-18T15:36:01.721Z,24.01
2023-04-18T15:38:32.824Z,23.43
2023-04-18T15:41:04.819Z,23.82
2023-04-18T15:43:34.967Z,24.37
2023-04-18T15:46:04.375Z,25.33
2023-04-18T15:48:34.502Z,25.58
2023-04-18T15:51:03.819Z,25.50
2023-04-18T15:53:32.818Z,26.64
2023-04-18T15:56:01.902Z,25.60
2023-04-18T15:58:31.122Z,27.29
2023-04-18T16:01:02.114Z,27.39
2023-04-18T16:03:31.651Z,27.25
2023-04-18T16:06:00.836Z,27.85
2023-04-18T16:08:31.315Z,28.54
2023-04-18T16:11:01.947Z,28.88
2023-04-18T16:13:30.918Z,29.60
2023-04-18T16:16:01.298Z,29.83
2023-04-18T16:18:30.291Z,29.55
2023-04-18T16:20:59.080Z,29.96
2023-04-18T16:23:27.949Z,30.38
2023-04-18T16:25:57.383Z,31.27
2023-04-18T16:28:30.033Z,30.48
2023-04-18T16:30:59.034Z,31.60
2023-04-18T16:33:29.478Z,31.31
2023-04-18T16:35:58.983Z,30.76
2023-04-18T16:38:28.137Z,30.97
2023-04-18T16:40:57.405Z,31.60
2023-04-18T16:43:28.017Z,31.38
2023-04-18T16:45:57.966Z,31.15
2023-04-18T16:48:27.216Z,31.91
2023-04-18T16:50:57.940Z,31.86
2023-04-18T16:53:26.807Z,32.34
2023-04-18T16:55:56.004Z,32.51
2023-04-18T16:58:25.277Z,32.59
2023-04-18T17:00:54.633Z,32.87
2023-04-18T17:03:23.369Z,32.61
2023-04-18T17:05:53.012Z,33.01
2023-04-18T17:08:24.323Z,32.59
2023-04-18T17:10:53.016Z,33.98
2023-04-18T17:13:22.439Z,33.96
2023-04-18T17:15:55.017Z,35.03
2023-04-18T17:18:24.868Z,35.37
2023-04-18T17:20:54.466Z,36.36
2023-04-18T17:23:25.053Z,36.70
2023-04-18T17:25:54.027Z,37.49
2023-04-18T17:28:23.695Z,38.14
2023-04-18T17:30:57.744Z,38.37
2023-04-18T17:33:29.127Z,38.54
2023-04-18T17:35:59.588Z,38.51
2023-04-18T17:38:29.740Z,38.88
2023-04-18T17:41:00.582Z,38.87
2023-04-18T17:43:31.071Z,39.08
2023-04-18T17:46:03.796Z,38.86
2023-04-18T17:48:32.674Z,38.62
2023-04-18T17:51:02.771Z,39.01
2023-04-18T17:53:33.039Z,39.56
2023-04-18T17:56:03.548Z,39.63
2023-04-18T17:58:33.322Z,39.62
2023-04-18T18:01:03.171Z,37.43
2023-04-18T18:03:33.519Z,38.95
2023-04-18T18:06:03.307Z,40.47
2023-04-18T18:08:38.290Z,40.94
2023-04-18T18:11:07.947Z,41.21
2023-04-18T18:13:39.402Z,41.28
2023-04-18T18:16:09.819Z,41.25
2023-04-18T18:18:40.754Z,41.42
2023-04-18T18:21:12.018Z,41.68
2023-04-18T18:23:43.112Z,41.84
2023-04-18T18:26:13.826Z,42.36
2023-04-18T18:28:43.250Z,42.47
2023-04-18T18:31:13.437Z,42.74
2023-04-18T18:33:45.996Z,42.69
2023-04-18T18:36:16.861Z,43.08
2023-04-18T18:38:47.790Z,42.98
2023-04-18T18:41:20.075Z,42.66
2023-04-18T18:43:50.890Z,43.27
2023-04-18T18:46:21.617Z,43.36
2023-04-18T18:48:52.169Z,43.28
2023-04-18T18:51:22.063Z,43.54
2023-04-18T18:53:52.636Z,43.87
2023-04-18T18:56:22.061Z,43.23
2023-04-18T18:58:52.089Z,43.59
2023-04-18T19:01:31.337Z,43.97
2023-04-18T19:04:00.510Z,43.05
2023-04-18T19:06:32.677Z,44.34
2023-04-18T19:09:07.751Z,44.72
2023-04-18T19:11:38.814Z,45.07
2023-04-18T19:14:09.020Z,45.85
2023-04-18T19:16:44.520Z,46.28
2023-04-18T19:19:15.266Z,46.18
2023-04-18T19:21:46.412Z,46.17
2023-04-18T19:24:20.070Z,45.29
2023-04-18T19:26:49.661Z,46.05
2023-04-18T19:29:23.858Z,44.73
2023-04-18T19:31:56.049Z,45.37
2023-04-18T19:34:26.590Z,45.68
2023-04-18T19:36:58.679Z,45.99
2023-04-18T19:39:30.238Z,46.84
2023-04-18T19:41:59.781Z,47.35
2023-04-18T19:44:31.510Z,47.82
2023-04-18T19:47:01.976Z,46.03
2023-04-18T19:49:34.068Z,46.49
2023-04-18T19:52:04.648Z,46.76
2023-04-18T19:54:36.298Z,45.22
2023-04-18T19:57:06.318Z,44.39
2023-04-18T19:59:36.437Z,44.39
2023-04-18T20:02:09.285Z,44.56
2023-04-18T20:04:42.357Z,43.83
2023-04-18T20:07:14.996Z,44.06
2023-04-18T20:09:49.186Z,44.62
2023-04-18T20:12:20.806Z,44.24
2023-04-18T20:14:51.222Z,44.26
2023-04-18T20:17:19.869Z,44.20
2023-04-18T20:19:52.975Z,43.88
2023-04-18T20:22:24.930Z,44.02
2023-04-18T20:24:58.049Z,42.34
2023-04-18T20:27:28.085Z,43.38
2023-04-18T20:29:57.802Z,43.05
2023-04-18T20:32:28.566Z,43.37
2023-04-18T20:34:58.680Z,42.26
2023-04-18T20:37:28.346Z,43.16
2023-04-18T20:40:06.537Z,43.22
2023-04-18T20:42:36.953Z,42.54
2023-04-18T20:45:11.386Z,43.70
2023-04-18T20:47:42.870Z,43.10
2023-04-18T20:50:14.539Z,44.06
2023-04-18T20:52:44.088Z,42.91
2023-04-18T20:55:16.751Z,43.35
2023-04-18T20:57:46.107Z,41.39
2023-04-18T21:00:16.390Z,40.55
2023-04-18T21:02:46.263Z,38.88
2023-04-18T21:05:15.030Z,41.22
2023-04-18T21:07:45.647Z,41.15
2023-04-18T21:10:18.726Z,42.45
2023-04-18T21:12:47.406Z,42.85
2023-04-18T21:15:16.479Z,43.79
2023-04-18T21:17:45.277Z,44.70
2023-04-18T21:20:14.075Z,42.60
2023-04-18T21:22:43.017Z,40.95
2023-04-18T21:25:11.918Z,40.77
2023-04-18T21:27:41.946Z,39.76
2023-04-18T21:30:11.504Z,39.71
2023-04-18T21:32:40.310Z,39.64
2023-04-18T21:35:09.747Z,39.88
2023-04-18T21:37:38.717Z,39.44
2023-04-18T21:40:10.687Z,38.27
2023-04-18T21:42:41.323Z,38.20
2023-04-18T21:45:11.913Z,38.64
2023-04-18T21:47:41.103Z,40.77
2023-04-18T21:50:10.822Z,41.69
2023-04-18T21:52:39.454Z,38.93
2023-04-18T21:55:08.957Z,38.96
2023-04-18T21:57:37.637Z,39.88
2023-04-18T22:00:10.716Z,38.49
2023-04-18T22:02:42.210Z,39.59
2023-04-18T22:05:12.895Z,39.37
2023-04-18T22:07:50.566Z,38.88
2023-04-18T22:10:25.983Z,40.35
2023-04-18T22:12:55.033Z,39.70
2023-04-18T22:15:27.123Z,39.82
2023-04-18T22:17:56.299Z,40.33
2023-04-18T22:20:26.894Z,38.93
2023-04-18T22:22:55.901Z,38.97
2023-04-18T22:25:24.518Z,39.44
2023-04-18T22:27:53.165Z,39.32
2023-04-18T22:30:22.272Z,38.39
2023-04-18T22:32:52.328Z,39.22
2023-04-18T22:35:21.026Z,40.25
2023-04-18T22:37:49.973Z,39.27
2023-04-18T22:40:18.809Z,38.41
2023-04-18T22:42:47.741Z,39.05
2023-04-18T22:45:18.948Z,39.79
2023-04-18T22:47:47.699Z,39.00
2023-04-18T22:50:18.136Z,38.22
2023-04-18T22:52:46.881Z,38.35
2023-04-18T22:55:16.600Z,38.69
2023-04-18T22:57:45.320Z,38.65
2023-04-18T23:00:14.707Z,39.17
2023-04-18T23:02:43.763Z,38.64
2023-04-18T23:05:15.520Z,38.82
2023-04-18T23:07:46.128Z,38.94
2023-04-18T23:10:14.805Z,38.57
2023-04-18T23:12:43.506Z,38.40
2023-04-18T23:15:13.164Z,39.25
2023-04-18T23:17:41.950Z,39.14
2023-04-18T23:20:12.472Z,38.32
2023-04-18T23:22:41.503Z,37.55
2023-04-18T23:25:11.730Z,37.86
2023-04-18T23:27:40.443Z,38.70
2023-04-18T23:30:10.467Z,39.09
2023-04-18T23:32:39.150Z,40.29
2023-04-18T23:35:08.250Z,40.18
2023-04-18T23:37:37.328Z,39.52
2023-04-18T23:40:07.932Z,37.66
2023-04-18T23:42:38.366Z,37.97
2023-04-18T23:45:07.818Z,38.50
2023-04-18T23:47:37.105Z,37.83
2023-04-18T23:50:07.729Z,37.56
2023-04-18T23:52:38.159Z,38.22
2023-04-18T23:55:07.934Z,38.45
2023-04-18T23:57:37.987Z,37.61
